createdAt,value
2022-08-10T00:02:33.703Z,68.4
2022-08-10T00:08:24.329Z,68.3
2022-08-10T00:14:01.059Z,68
2022-08-10T00:20:08.887Z,67.9
2022-08-10T00:25:41.846Z,68.3
2022-08-10T00:31:16.732Z,68.2
2022-08-10T00:36:51.501Z,68.4
2022-08-10T00:42:26.601Z,68
2022-08-10T00:48:01.773Z,68.2
2022-08-10T00:53:36.781Z,68.2
2022-08-10T00:59:11.750Z,68.3
2022-08-10T01:05:01.824Z,68.4
2022-08-10T01:10:38.252Z,68.9
2022-08-10T01:16:35.984Z,69
2022-08-10T01:22:08.564Z,69.4
2022-08-10T01:27:43.486Z,69.7
2022-08-10T01:33:57.920Z,69.8
2022-08-10T01:39:38.216Z,69.6
2022-08-10T01:45:17.969Z,69.7
2022-08-10T01:51:00.609Z,69.6
2022-08-10T01:56:35.720Z,70.1
2022-08-10T02:02:10.639Z,70.1
2022-08-10T02:07:45.409Z,69.9
2022-08-10T02:13:20.379Z,69.9
2022-08-10T02:19:17.951Z,70
2022-08-10T02:24:50.560Z,69.9
2022-08-10T02:30:25.524Z,69.9
2022-08-10T02:36:01.274Z,70
2022-08-10T02:45:29.014Z,70.3
2022-08-10T02:51:09.483Z,70.6
2022-08-10T02:56:45.039Z,70.7
2022-08-10T03:02:20.749Z,70.8
2022-08-10T03:07:55.759Z,71.3
2022-08-10T03:13:31.769Z,71.1
2022-08-10T03:20:39.450Z,71.2
2022-08-10T03:26:20.496Z,71.4
2022-08-10T03:31:55.714Z,71.8
2022-08-10T03:37:31.383Z,71.7
2022-08-10T03:43:14.691Z,71.9
2022-08-10T03:48:50.563Z,72
2022-08-10T03:54:36.343Z,72
2022-08-10T04:00:12.865Z,72.3
2022-08-10T04:05:47.486Z,72.2
2022-08-10T04:11:22.455Z,72
2022-08-10T04:18:06.430Z,71.9
2022-08-10T04:23:39.764Z,72
2022-08-10T04:29:15.017Z,72.1
2022-08-10T04:34:50.135Z,72
2022-08-10T04:40:31.226Z,72
2022-08-10T04:46:56.645Z,72.1
2022-08-10T04:52:35.792Z,72
2022-08-10T04:58:11.492Z,71.9
2022-08-10T05:04:39.343Z,71.8
2022-08-10T05:10:15.126Z,72.1
2022-08-10T05:15:49.932Z,72.3
2022-08-10T05:22:05.125Z,72.5
2022-08-10T05:27:40.148Z,72.2
2022-08-10T05:33:16.314Z,72.4
2022-08-10T05:38:51.274Z,72.3
2022-08-10T05:44:26.344Z,72.8
2022-08-10T05:50:01.049Z,71.9
2022-08-10T05:55:36.289Z,73.9
2022-08-10T06:01:11.520Z,73.8
2022-08-10T06:06:46.870Z,74.2
2022-08-10T06:12:30.493Z,73.9
2022-08-10T06:18:59.838Z,74.7
2022-08-10T06:24:32.539Z,75
2022-08-10T06:30:21.356Z,75.4
2022-08-10T06:35:56.266Z,75.3
2022-08-10T06:42:17.811Z,75.4
2022-08-10T06:47:54.703Z,75.2
2022-08-10T06:53:55.359Z,74.8
2022-08-10T06:59:31.697Z,75
2022-08-10T07:05:06.585Z,74.1
2022-08-10T07:10:46.671Z,73.8
2022-08-10T07:16:43.546Z,72.6
2022-08-10T07:24:00.383Z,72.4
2022-08-10T07:29:54.941Z,72
2022-08-10T07:35:43.260Z,71.2
2022-08-10T07:41:19.450Z,72.1
2022-08-10T07:46:54.529Z,71.6
2022-08-10T07:52:30.459Z,70.5
2022-08-10T07:58:06.348Z,70.5
2022-08-10T08:03:41.971Z,69.7
2022-08-10T08:09:16.854Z,68.7
2022-08-10T08:14:52.760Z,67.8
2022-08-10T08:20:29.323Z,66.6
2022-08-10T08:26:04.690Z,66.1
2022-08-10T08:32:03.309Z,65.5
2022-08-10T08:38:35.007Z,64.1
2022-08-10T08:44:10.431Z,60.6
2022-08-10T08:50:10.567Z,57.7
2022-08-10T08:56:07.061Z,57.1
2022-08-10T09:01:42.988Z,56.3
2022-08-10T09:08:03.137Z,55.4
2022-08-10T09:13:39.089Z,56.5
2022-08-10T09:19:37.338Z,54.6
2022-08-10T09:25:10.658Z,55.5
2022-08-10T09:31:22.263Z,53.6
2022-08-10T09:37:01.139Z,54
2022-08-10T09:42:37.963Z,52.6
2022-08-10T09:48:12.992Z,51.2
2022-08-10T09:53:47.969Z,49.7
2022-08-10T10:00:02.672Z,50.9
2022-08-10T10:05:38.357Z,49.4
2022-08-10T10:11:24.338Z,49.9
2022-08-10T10:17:21.298Z,49.3
2022-08-10T10:22:54.069Z,48.8
2022-08-10T10:29:20.005Z,52.2
2022-08-10T10:35:36.676Z,52.8
2022-08-10T10:41:15.006Z,54.1
2022-08-10T10:46:51.956Z,54.1
2022-08-10T10:52:27.375Z,54
2022-08-10T10:58:02.772Z,54.5
2022-08-10T11:03:39.988Z,54
2022-08-10T11:10:09.937Z,53.4
2022-08-10T11:16:57.244Z,54.3
2022-08-10T11:22:37.221Z,53.8
2022-08-10T11:28:12.643Z,53.1
2022-08-10T11:35:10.098Z,53.1
2022-08-10T11:40:48.629Z,53.1
2022-08-10T11:46:29.303Z,51.5
2022-08-10T11:52:04.367Z,51
2022-08-10T11:58:00.834Z,51.5
2022-08-10T12:03:36.021Z,52.1
2022-08-10T12:10:13.336Z,51.4
2022-08-10T12:15:49.993Z,51.4
2022-08-10T12:21:24.402Z,50.6
2022-08-10T12:26:59.307Z,50.2
2022-08-10T12:32:35.544Z,49.8
2022-08-10T12:38:12.511Z,48.2
2022-08-10T12:44:08.933Z,48.5
2022-08-10T12:50:34.028Z,47.6
2022-08-10T12:56:09.745Z,46.7
2022-08-10T13:02:11.187Z,46.8
2022-08-10T13:08:28.041Z,46
2022-08-10T13:14:03.552Z,45.9
2022-08-10T13:19:58.646Z,44.1
2022-08-10T13:25:50.832Z,43
2022-08-10T13:32:09.469Z,42.9
2022-08-10T13:37:46.739Z,42
2022-08-10T13:43:21.699Z,40.3
2022-08-10T13:48:59.185Z,40.9
2022-08-10T13:54:35.107Z,41
2022-08-10T14:00:38.587Z,40.6
2022-08-10T14:06:14.667Z,40
2022-08-10T14:11:49.768Z,38.4
2022-08-10T14:17:46.705Z,38.1
2022-08-10T14:23:20.639Z,38.7
2022-08-10T14:28:55.494Z,38.2
2022-08-10T14:36:24.381Z,37.6
2022-08-10T14:42:20.343Z,36.4
2022-08-10T14:48:04.165Z,36.1
2022-08-10T14:53:46.040Z,36.1
2022-08-10T14:59:35.770Z,35.6
2022-08-10T15:06:19.059Z,35.6
2022-08-10T15:12:18.648Z,35.2
2022-08-10T15:18:26.981Z,35
2022-08-10T15:24:09.929Z,35
2022-08-10T15:29:58.394Z,34.9
2022-08-10T15:35:37.256Z,34.7
2022-08-10T15:41:16.873Z,34.4
2022-08-10T15:47:46.792Z,35.3
2022-08-10T15:53:27.951Z,35.4
2022-08-10T15:59:08.647Z,34.1
2022-08-10T16:04:46.267Z,34.3
2022-08-10T16:10:29.977Z,34.6
2022-08-10T16:16:35.815Z,35
2022-08-10T16:22:37.665Z,34.6
2022-08-10T16:28:24.260Z,34.7
2022-08-10T16:33:59.552Z,34.5
2022-08-10T16:40:01.277Z,35.1
2022-08-10T16:45:38.988Z,35.1
2022-08-10T16:51:17.734Z,35
2022-08-10T16:56:52.878Z,34.6
2022-08-10T17:02:27.709Z,34.1
2022-08-10T17:08:03.775Z,34.5
2022-08-10T17:13:38.614Z,35.3
2022-08-10T17:19:35.093Z,36.7
2022-08-10T17:25:07.928Z,37.2
2022-08-10T17:30:58.789Z,37.5
2022-08-10T17:36:33.821Z,37.9
2022-08-10T17:42:08.905Z,38.3
2022-08-10T17:47:43.575Z,38.8
2022-08-10T17:53:19.399Z,39.4
2022-08-10T17:58:54.179Z,40.3
2022-08-10T18:04:41.680Z,40.9
2022-08-10T18:10:17.775Z,41.3
2022-08-10T18:15:52.419Z,41.8
2022-08-10T18:21:31.200Z,41.4
2022-08-10T18:27:05.869Z,41
2022-08-10T18:32:40.423Z,41.2
2022-08-10T18:38:15.645Z,41.5
2022-08-10T18:44:12.758Z,41.4
2022-08-10T18:49:47.929Z,39.2
2022-08-10T18:55:24.897Z,41.2
2022-08-10T19:01:45.119Z,40.9
2022-08-10T19:07:19.914Z,41.7
2022-08-10T19:12:55.068Z,43
2022-08-10T19:18:51.600Z,44.2
2022-08-10T19:24:24.329Z,45.1
2022-08-10T19:30:13.191Z,46.3
2022-08-10T19:36:05.506Z,49.1
2022-08-10T19:41:45.178Z,47.8
2022-08-10T19:47:21.255Z,47.8
2022-08-10T19:52:56.079Z,48
2022-08-10T19:58:31.056Z,48.6
2022-08-10T20:04:05.845Z,49.1
2022-08-10T20:09:41.750Z,49.7
2022-08-10T20:15:16.506Z,49.3
2022-08-10T20:20:52.310Z,51.5
2022-08-10T20:26:27.124Z,52
2022-08-10T20:32:01.839Z,53.6
2022-08-10T20:38:05.212Z,49.1
2022-08-10T20:43:42.662Z,49.4
2022-08-10T20:49:17.947Z,53
2022-08-10T20:54:53.187Z,54.2
2022-08-10T21:00:27.803Z,52.8
2022-08-10T21:06:03.693Z,55.5
2022-08-10T21:11:38.531Z,55.8
2022-08-10T21:17:37.880Z,55.1
2022-08-10T21:23:12.059Z,57.7
2022-08-10T21:28:50.613Z,55.9
2022-08-10T21:34:32.714Z,55.4
2022-08-10T21:40:35.614Z,56.3
2022-08-10T21:46:15.738Z,56.8
2022-08-10T21:52:04.298Z,57.4
2022-08-10T21:57:44.182Z,57.6
2022-08-10T22:03:20.766Z,56.7
2022-08-10T22:08:55.714Z,56.2
2022-08-10T22:14:34.256Z,55.8
2022-08-10T22:20:09.412Z,55.2
2022-08-10T22:25:44.572Z,55.8
2022-08-10T22:31:49.537Z,55.4
2022-08-10T22:37:25.608Z,55.1
2022-08-10T22:43:12.366Z,56.6
2022-08-10T22:49:11.432Z,57.4
2022-08-10T22:54:46.330Z,56.9
2022-08-10T23:00:31.779Z,56.2
2022-08-10T23:06:06.760Z,55.7
2022-08-10T23:11:41.640Z,56.5
2022-08-10T23:18:02.779Z,58.9
2022-08-10T23:23:35.551Z,60.3
2022-08-10T23:29:12.576Z,60.2
2022-08-10T23:36:35.599Z,59.8
2022-08-10T23:42:11.030Z,59.4
2022-08-10T23:47:45.822Z,59.5
2022-08-10T23:53:25.465Z,58.4
2022-08-10T23:59:00.316Z,59.5
